Bay Roberts, Canada
Current Conditions -  °F | °C
As of 1:00 PM on Wednesday 26 Nov 2014 (Local Time) from CYYT Reporting Station
Overcast Overcast  
Wind Chill: 33°   Ceiling: 19000
Heat Index: 43°   Visibility: 15mi
Dew Point: 32°   Wind: 24mph
Humidity: 66%   Direction: 280°W
Pressure: 29.91"   Gusts: 31mph
Location:  47.58°N, 53.3°W
Report Text: CYYT 261600Z 28021G27KT 15SM OVC190 06/00 A2991 RMK AC8 SLP134
Loading
Personal Weather Stations






























Interactive Weather Map New forecast layout! Learn more

10-Day Weather Forecast

Advertisements
Track Severe Weather on mobile